sensor_id;sensor_type;location;lat;lon;timestamp;P1;durP1;ratioP1;P2;durP2;ratioP2
47764;SDS011;33529;49.242;8.670;2022-11-20T00:01:09;6.22;;;3.35;;
47764;SDS011;33529;49.242;8.670;2022-11-20T00:03:40;5.57;;;3.00;;
47764;SDS011;33529;49.242;8.670;2022-11-20T00:06:09;5.97;;;3.42;;
47764;SDS011;33529;49.242;8.670;2022-11-20T00:08:37;6.85;;;4.38;;
47764;SDS011;33529;49.242;8.670;2022-11-20T00:11:08;5.25;;;3.15;;
47764;SDS011;33529;49.242;8.670;2022-11-20T00:13:42;6.35;;;3.35;;
47764;SDS011;33529;49.242;8.670;2022-11-20T00:16:13;6.43;;;3.50;;
47764;SDS011;33529;49.242;8.670;2022-11-20T00:18:43;6.55;;;3.25;;
47764;SDS011;33529;49.242;8.670;2022-11-20T00:21:12;6.75;;;3.85;;
47764;SDS011;33529;49.242;8.670;2022-11-20T00:23:41;4.63;;;2.47;;
47764;SDS011;33529;49.242;8.670;2022-11-20T00:26:09;4.80;;;2.20;;
47764;SDS011;33529;49.242;8.670;2022-11-20T00:28:38;5.75;;;2.78;;
47764;SDS011;33529;49.242;8.670;2022-11-20T00:31:06;5.57;;;2.80;;
47764;SDS011;33529;49.242;8.670;2022-11-20T00:33:34;5.07;;;3.03;;
47764;SDS011;33529;49.242;8.670;2022-11-20T00:36:02;5.63;;;2.83;;
47764;SDS011;33529;49.242;8.670;2022-11-20T00:38:31;6.88;;;3.20;;
47764;SDS011;33529;49.242;8.670;2022-11-20T00:40:59;4.18;;;3.10;;
47764;SDS011;33529;49.242;8.670;2022-11-20T00:43:27;5.63;;;3.22;;
47764;SDS011;33529;49.242;8.670;2022-11-20T00:45:58;4.57;;;2.55;;
47764;SDS011;33529;49.242;8.670;2022-11-20T00:48:32;6.18;;;2.80;;
47764;SDS011;33529;49.242;8.670;2022-11-20T00:51:00;4.75;;;2.70;;
47764;SDS011;33529;49.242;8.670;2022-11-20T00:53:27;5.95;;;2.35;;
47764;SDS011;33529;49.242;8.670;2022-11-20T00:58:22;6.20;;;3.80;;
47764;SDS011;33529;49.242;8.670;2022-11-20T01:00:50;7.72;;;3.67;;
47764;SDS011;33529;49.242;8.670;2022-11-20T01:03:17;6.03;;;3.50;;
47764;SDS011;33529;49.242;8.670;2022-11-20T01:05:52;5.40;;;2.72;;
47764;SDS011;33529;49.242;8.670;2022-11-20T01:08:19;6.93;;;3.95;;
47764;SDS011;33529;49.242;8.670;2022-11-20T01:10:48;15.43;;;6.03;;
47764;SDS011;33529;49.242;8.670;2022-11-20T01:13:15;9.30;;;4.43;;
47764;SDS011;33529;49.242;8.670;2022-11-20T01:16:02;9.13;;;4.38;;
47764;SDS011;33529;49.242;8.670;2022-11-20T01:18:38;7.32;;;4.88;;
47764;SDS011;33529;49.242;8.670;2022-11-20T01:21:08;11.15;;;6.30;;
47764;SDS011;33529;49.242;8.670;2022-11-20T01:23:40;8.18;;;4.07;;
47764;SDS011;33529;49.242;8.670;2022-11-20T01:26:11;4.88;;;3.08;;
47764;SDS011;33529;49.242;8.670;2022-11-20T01:28:41;5.47;;;2.88;;
47764;SDS011;33529;49.242;8.670;2022-11-20T01:31:12;7.38;;;3.75;;
47764;SDS011;33529;49.242;8.670;2022-11-20T01:33:46;6.03;;;3.38;;
47764;SDS011;33529;49.242;8.670;2022-11-20T01:36:15;6.88;;;3.83;;
47764;SDS011;33529;49.242;8.670;2022-11-20T01:38:43;5.75;;;2.75;;
47764;SDS011;33529;49.242;8.670;2022-11-20T01:41:11;4.32;;;2.95;;
47764;SDS011;33529;49.242;8.670;2022-11-20T01:44:02;5.57;;;2.70;;
47764;SDS011;33529;49.242;8.670;2022-11-20T01:46:31;5.40;;;3.42;;
47764;SDS011;33529;49.242;8.670;2022-11-20T01:51:46;5.63;;;2.95;;
47764;SDS011;33529;49.242;8.670;2022-11-20T01:54:44;5.50;;;3.33;;
47764;SDS011;33529;49.242;8.670;2022-11-20T01:57:17;6.32;;;3.20;;
47764;SDS011;33529;49.242;8.670;2022-11-20T01:59:48;5.65;;;3.53;;
47764;SDS011;33529;49.242;8.670;2022-11-20T02:02:21;7.05;;;3.70;;
47764;SDS011;33529;49.242;8.670;2022-11-20T02:04:49;6.97;;;3.33;;
47764;SDS011;33529;49.242;8.670;2022-11-20T02:07:20;5.18;;;2.88;;
47764;SDS011;33529;49.242;8.670;2022-11-20T02:09:49;5.95;;;3.60;;
47764;SDS011;33529;49.242;8.670;2022-11-20T02:12:23;7.05;;;3.88;;
47764;SDS011;33529;49.242;8.670;2022-11-20T02:15:09;5.78;;;3.40;;
47764;SDS011;33529;49.242;8.670;2022-11-20T02:17:39;8.07;;;2.90;;
47764;SDS011;33529;49.242;8.670;2022-11-20T02:20:09;7.80;;;3.95;;
47764;SDS011;33529;49.242;8.670;2022-11-20T02:25:37;5.28;;;3.05;;
47764;SDS011;33529;49.242;8.670;2022-11-20T02:28:05;6.30;;;3.28;;
47764;SDS011;33529;49.242;8.670;2022-11-20T02:30:32;7.63;;;3.55;;
47764;SDS011;33529;49.242;8.670;2022-11-20T02:32:59;7.45;;;3.53;;
47764;SDS011;33529;49.242;8.670;2022-11-20T02:37:54;7.28;;;3.58;;
47764;SDS011;33529;49.242;8.670;2022-11-20T02:40:22;5.72;;;2.88;;
47764;SDS011;33529;49.242;8.670;2022-11-20T02:42:53;6.22;;;3.08;;
47764;SDS011;33529;49.242;8.670;2022-11-20T02:45:23;6.82;;;4.28;;
47764;SDS011;33529;49.242;8.670;2022-11-20T02:47:51;5.60;;;3.13;;
47764;SDS011;33529;49.242;8.670;2022-11-20T02:50:18;5.57;;;3.20;;
47764;SDS011;33529;49.242;8.670;2022-11-20T02:52:45;7.15;;;3.83;;
47764;SDS011;33529;49.242;8.670;2022-11-20T02:55:12;6.15;;;3.60;;
47764;SDS011;33529;49.242;8.670;2022-11-20T02:57:39;7.55;;;3.70;;
47764;SDS011;33529;49.242;8.670;2022-11-20T03:00:06;7.35;;;5.05;;
47764;SDS011;33529;49.242;8.670;2022-11-20T03:02:33;7.05;;;3.80;;
47764;SDS011;33529;49.242;8.670;2022-11-20T03:05:00;6.22;;;2.97;;
47764;SDS011;33529;49.242;8.670;2022-11-20T03:07:27;5.93;;;3.03;;
47764;SDS011;33529;49.242;8.670;2022-11-20T03:09:54;8.35;;;3.67;;
47764;SDS011;33529;49.242;8.670;2022-11-20T03:12:21;7.13;;;3.92;;
47764;SDS011;33529;49.242;8.670;2022-11-20T03:14:47;5.60;;;3.50;;
47764;SDS011;33529;49.242;8.670;2022-11-20T03:17:18;6.15;;;3.28;;
47764;SDS011;33529;49.242;8.670;2022-11-20T03:19:45;5.93;;;3.78;;
47764;SDS011;33529;49.242;8.670;2022-11-20T03:22:12;7.47;;;3.95;;
47764;SDS011;33529;49.242;8.670;2022-11-20T03:24:39;5.47;;;3.42;;
47764;SDS011;33529;49.242;8.670;2022-11-20T03:27:06;6.72;;;3.50;;
47764;SDS011;33529;49.242;8.670;2022-11-20T03:29:32;5.47;;;3.33;;
47764;SDS011;33529;49.242;8.670;2022-11-20T03:32:00;6.90;;;3.63;;
47764;SDS011;33529;49.242;8.670;2022-11-20T03:34:27;6.13;;;3.53;;
47764;SDS011;33529;49.242;8.670;2022-11-20T03:36:54;6.45;;;3.90;;
47764;SDS011;33529;49.242;8.670;2022-11-20T03:39:21;6.25;;;3.53;;
47764;SDS011;33529;49.242;8.670;2022-11-20T03:41:48;6.35;;;3.58;;
47764;SDS011;33529;49.242;8.670;2022-11-20T03:44:14;6.88;;;3.75;;
47764;SDS011;33529;49.242;8.670;2022-11-20T03:46:41;8.57;;;3.67;;
47764;SDS011;33529;49.242;8.670;2022-11-20T03:49:08;6.93;;;4.03;;
47764;SDS011;33529;49.242;8.670;2022-11-20T03:51:35;6.03;;;3.97;;
47764;SDS011;33529;49.242;8.670;2022-11-20T03:54:03;6.78;;;4.45;;
47764;SDS011;33529;49.242;8.670;2022-11-20T03:56:33;7.22;;;4.22;;
47764;SDS011;33529;49.242;8.670;2022-11-20T03:59:02;7.00;;;3.83;;
47764;SDS011;33529;49.242;8.670;2022-11-20T04:01:30;7.45;;;3.83;;
47764;SDS011;33529;49.242;8.670;2022-11-20T04:04:00;8.27;;;4.07;;
47764;SDS011;33529;49.242;8.670;2022-11-20T04:06:32;7.47;;;4.07;;
47764;SDS011;33529;49.242;8.670;2022-11-20T04:09:01;7.22;;;4.10;;
47764;SDS011;33529;49.242;8.670;2022-11-20T04:11:28;7.20;;;3.90;;
47764;SDS011;33529;49.242;8.670;2022-11-20T04:13:58;9.02;;;4.97;;
47764;SDS011;33529;49.242;8.670;2022-11-20T04:16:31;8.80;;;4.43;;
47764;SDS011;33529;49.242;8.670;2022-11-20T04:19:00;8.07;;;4.68;;
47764;SDS011;33529;49.242;8.670;2022-11-20T04:21:29;9.88;;;5.20;;
47764;SDS011;33529;49.242;8.670;2022-11-20T04:23:56;9.35;;;5.30;;
47764;SDS011;33529;49.242;8.670;2022-11-20T04:26:24;8.98;;;4.38;;
47764;SDS011;33529;49.242;8.670;2022-11-20T04:28:52;7.97;;;4.32;;
47764;SDS011;33529;49.242;8.670;2022-11-20T04:31:20;7.68;;;4.32;;
47764;SDS011;33529;49.242;8.670;2022-11-20T04:33:49;7.80;;;3.83;;
47764;SDS011;33529;49.242;8.670;2022-11-20T04:36:17;8.10;;;3.95;;
47764;SDS011;33529;49.242;8.670;2022-11-20T04:38:46;10.30;;;4.60;;
47764;SDS011;33529;49.242;8.670;2022-11-20T04:41:22;7.18;;;4.55;;
47764;SDS011;33529;49.242;8.670;2022-11-20T04:43:56;7.53;;;4.00;;
47764;SDS011;33529;49.242;8.670;2022-11-20T04:46:35;8.85;;;4.55;;
47764;SDS011;33529;49.242;8.670;2022-11-20T04:49:04;10.02;;;4.20;;
47764;SDS011;33529;49.242;8.670;2022-11-20T04:51:31;6.93;;;3.80;;
47764;SDS011;33529;49.242;8.670;2022-11-20T04:53:58;7.85;;;4.20;;
47764;SDS011;33529;49.242;8.670;2022-11-20T04:56:25;7.47;;;4.80;;
47764;SDS011;33529;49.242;8.670;2022-11-20T04:58:52;9.30;;;4.20;;
47764;SDS011;33529;49.242;8.670;2022-11-20T05:01:20;7.57;;;4.63;;
47764;SDS011;33529;49.242;8.670;2022-11-20T05:03:48;6.60;;;3.38;;
47764;SDS011;33529;49.242;8.670;2022-11-20T05:06:17;8.85;;;3.95;;
47764;SDS011;33529;49.242;8.670;2022-11-20T05:08:45;7.18;;;3.85;;
47764;SDS011;33529;49.242;8.670;2022-11-20T05:11:13;8.18;;;4.18;;
47764;SDS011;33529;49.242;8.670;2022-11-20T05:13:42;6.57;;;3.63;;
47764;SDS011;33529;49.242;8.670;2022-11-20T05:16:10;6.45;;;4.28;;
47764;SDS011;33529;49.242;8.670;2022-11-20T05:18:39;6.80;;;4.25;;
47764;SDS011;33529;49.242;8.670;2022-11-20T05:21:07;8.20;;;4.68;;
47764;SDS011;33529;49.242;8.670;2022-11-20T05:23:35;9.85;;;5.03;;
47764;SDS011;33529;49.242;8.670;2022-11-20T05:26:03;9.75;;;4.57;;
47764;SDS011;33529;49.242;8.670;2022-11-20T05:28:31;8.25;;;4.80;;
47764;SDS011;33529;49.242;8.670;2022-11-20T05:31:12;7.25;;;3.83;;
47764;SDS011;33529;49.242;8.670;2022-11-20T05:33:41;9.30;;;4.63;;
47764;SDS011;33529;49.242;8.670;2022-11-20T05:36:09;8.20;;;4.10;;
47764;SDS011;33529;49.242;8.670;2022-11-20T05:38:36;6.05;;;3.83;;
47764;SDS011;33529;49.242;8.670;2022-11-20T05:41:22;7.65;;;4.38;;
47764;SDS011;33529;49.242;8.670;2022-11-20T05:43:49;9.48;;;4.85;;
47764;SDS011;33529;49.242;8.670;2022-11-20T05:46:19;7.88;;;4.47;;
47764;SDS011;33529;49.242;8.670;2022-11-20T05:48:54;8.85;;;4.95;;
47764;SDS011;33529;49.242;8.670;2022-11-20T05:51:21;7.80;;;4.60;;
47764;SDS011;33529;49.242;8.670;2022-11-20T05:53:48;11.50;;;4.53;;
47764;SDS011;33529;49.242;8.670;2022-11-20T05:56:16;8.50;;;4.07;;
47764;SDS011;33529;49.242;8.670;2022-11-20T05:58:45;8.27;;;4.05;;
47764;SDS011;33529;49.242;8.670;2022-11-20T06:01:19;8.45;;;4.60;;
47764;SDS011;33529;49.242;8.670;2022-11-20T06:03:48;6.82;;;4.43;;
47764;SDS011;33529;49.242;8.670;2022-11-20T06:06:17;7.82;;;4.00;;
47764;SDS011;33529;49.242;8.670;2022-11-20T06:08:44;7.85;;;4.95;;
47764;SDS011;33529;49.242;8.670;2022-11-20T06:11:12;7.85;;;4.70;;
47764;SDS011;33529;49.242;8.670;2022-11-20T06:13:40;7.57;;;4.15;;
47764;SDS011;33529;49.242;8.670;2022-11-20T06:16:08;6.22;;;3.80;;
47764;SDS011;33529;49.242;8.670;2022-11-20T06:18:36;6.88;;;4.40;;
47764;SDS011;33529;49.242;8.670;2022-11-20T06:23:36;7.97;;;4.30;;
47764;SDS011;33529;49.242;8.670;2022-11-20T06:26:06;6.97;;;4.25;;
47764;SDS011;33529;49.242;8.670;2022-11-20T06:28:35;8.13;;;4.68;;
47764;SDS011;33529;49.242;8.670;2022-11-20T06:31:02;9.68;;;4.75;;
47764;SDS011;33529;49.242;8.670;2022-11-20T06:33:29;8.23;;;4.88;;
47764;SDS011;33529;49.242;8.670;2022-11-20T06:35:57;9.25;;;4.15;;
47764;SDS011;33529;49.242;8.670;2022-11-20T06:38:31;8.20;;;4.57;;
47764;SDS011;33529;49.242;8.670;2022-11-20T06:40:58;8.02;;;4.32;;
47764;SDS011;33529;49.242;8.670;2022-11-20T06:43:25;6.80;;;4.13;;
47764;SDS011;33529;49.242;8.670;2022-11-20T06:45:52;6.25;;;3.88;;
47764;SDS011;33529;49.242;8.670;2022-11-20T06:48:20;8.77;;;4.80;;
47764;SDS011;33529;49.242;8.670;2022-11-20T06:50:47;6.88;;;3.80;;
47764;SDS011;33529;49.242;8.670;2022-11-20T06:53:14;9.52;;;4.20;;
47764;SDS011;33529;49.242;8.670;2022-11-20T06:55:42;6.30;;;3.47;;
47764;SDS011;33529;49.242;8.670;2022-11-20T06:58:10;8.90;;;4.80;;
47764;SDS011;33529;49.242;8.670;2022-11-20T07:00:38;6.57;;;4.20;;
47764;SDS011;33529;49.242;8.670;2022-11-20T07:03:05;6.60;;;4.30;;
47764;SDS011;33529;49.242;8.670;2022-11-20T07:05:33;5.30;;;3.58;;
47764;SDS011;33529;49.242;8.670;2022-11-20T07:08:00;6.40;;;4.00;;
47764;SDS011;33529;49.242;8.670;2022-11-20T07:10:28;5.75;;;3.25;;
47764;SDS011;33529;49.242;8.670;2022-11-20T07:12:55;6.38;;;3.78;;
47764;SDS011;33529;49.242;8.670;2022-11-20T07:15:22;8.15;;;4.15;;
47764;SDS011;33529;49.242;8.670;2022-11-20T07:17:51;9.10;;;4.45;;
47764;SDS011;33529;49.242;8.670;2022-11-20T07:20:18;7.00;;;3.72;;
47764;SDS011;33529;49.242;8.670;2022-11-20T07:22:45;4.97;;;2.75;;
47764;SDS011;33529;49.242;8.670;2022-11-20T07:25:12;5.47;;;3.03;;
47764;SDS011;33529;49.242;8.670;2022-11-20T07:27:38;5.75;;;3.05;;
47764;SDS011;33529;49.242;8.670;2022-11-20T07:30:05;4.35;;;2.40;;
47764;SDS011;33529;49.242;8.670;2022-11-20T07:32:33;6.80;;;2.55;;
47764;SDS011;33529;49.242;8.670;2022-11-20T07:34:59;4.35;;;2.47;;
47764;SDS011;33529;49.242;8.670;2022-11-20T07:37:26;4.53;;;2.20;;
47764;SDS011;33529;49.242;8.670;2022-11-20T07:39:53;5.00;;;2.88;;
47764;SDS011;33529;49.242;8.670;2022-11-20T07:42:20;5.47;;;3.08;;
47764;SDS011;33529;49.242;8.670;2022-11-20T07:44:49;4.72;;;2.33;;
47764;SDS011;33529;49.242;8.670;2022-11-20T07:47:16;5.45;;;2.72;;
47764;SDS011;33529;49.242;8.670;2022-11-20T07:49:43;5.32;;;2.40;;
47764;SDS011;33529;49.242;8.670;2022-11-20T07:52:09;6.20;;;3.67;;
47764;SDS011;33529;49.242;8.670;2022-11-20T07:54:36;5.13;;;2.40;;
47764;SDS011;33529;49.242;8.670;2022-11-20T07:57:03;4.55;;;2.25;;
47764;SDS011;33529;49.242;8.670;2022-11-20T07:59:30;4.72;;;2.38;;
47764;SDS011;33529;49.242;8.670;2022-11-20T08:01:57;5.50;;;2.83;;
47764;SDS011;33529;49.242;8.670;2022-11-20T08:04:24;4.40;;;2.50;;
47764;SDS011;33529;49.242;8.670;2022-11-20T08:06:51;3.47;;;2.33;;
47764;SDS011;33529;49.242;8.670;2022-11-20T08:09:18;4.60;;;2.78;;
47764;SDS011;33529;49.242;8.670;2022-11-20T08:11:45;4.30;;;2.30;;
47764;SDS011;33529;49.242;8.670;2022-11-20T08:14:31;5.40;;;2.72;;
47764;SDS011;33529;49.242;8.670;2022-11-20T08:16:58;4.70;;;2.65;;
47764;SDS011;33529;49.242;8.670;2022-11-20T08:19:25;4.60;;;2.60;;
47764;SDS011;33529;49.242;8.670;2022-11-20T08:21:52;5.35;;;2.55;;
47764;SDS011;33529;49.242;8.670;2022-11-20T08:24:19;3.67;;;2.42;;
47764;SDS011;33529;49.242;8.670;2022-11-20T08:26:46;5.65;;;2.78;;
47764;SDS011;33529;49.242;8.670;2022-11-20T08:29:13;4.97;;;2.35;;
47764;SDS011;33529;49.242;8.670;2022-11-20T08:31:39;5.47;;;2.22;;
47764;SDS011;33529;49.242;8.670;2022-11-20T08:34:07;4.25;;;2.45;;
47764;SDS011;33529;49.242;8.670;2022-11-20T08:36:36;3.40;;;1.85;;
47764;SDS011;33529;49.242;8.670;2022-11-20T08:39:03;3.55;;;1.92;;
47764;SDS011;33529;49.242;8.670;2022-11-20T08:41:30;5.07;;;2.80;;
47764;SDS011;33529;49.242;8.670;2022-11-20T08:44:00;3.70;;;2.30;;
47764;SDS011;33529;49.242;8.670;2022-11-20T08:46:32;5.70;;;2.83;;
47764;SDS011;33529;49.242;8.670;2022-11-20T08:49:05;4.05;;;2.13;;
47764;SDS011;33529;49.242;8.670;2022-11-20T08:51:33;5.35;;;2.80;;
47764;SDS011;33529;49.242;8.670;2022-11-20T08:54:01;3.88;;;1.98;;
47764;SDS011;33529;49.242;8.670;2022-11-20T08:56:28;4.10;;;2.25;;
47764;SDS011;33529;49.242;8.670;2022-11-20T08:58:54;4.32;;;2.50;;
47764;SDS011;33529;49.242;8.670;2022-11-20T09:01:41;3.80;;;2.33;;
47764;SDS011;33529;49.242;8.670;2022-11-20T09:04:08;5.28;;;2.35;;
47764;SDS011;33529;49.242;8.670;2022-11-20T09:06:35;4.50;;;2.67;;
47764;SDS011;33529;49.242;8.670;2022-11-20T09:09:02;3.95;;;2.75;;
47764;SDS011;33529;49.242;8.670;2022-11-20T09:11:49;3.90;;;2.25;;
47764;SDS011;33529;49.242;8.670;2022-11-20T09:14:16;4.60;;;3.00;;
47764;SDS011;33529;49.242;8.670;2022-11-20T09:16:44;5.93;;;2.20;;
47764;SDS011;33529;49.242;8.670;2022-11-20T09:19:12;4.53;;;2.63;;
47764;SDS011;33529;49.242;8.670;2022-11-20T09:21:59;5.35;;;2.50;;
47764;SDS011;33529;49.242;8.670;2022-11-20T09:24:26;4.65;;;2.58;;
47764;SDS011;33529;49.242;8.670;2022-11-20T09:26:53;4.85;;;2.60;;
47764;SDS011;33529;49.242;8.670;2022-11-20T09:29:20;5.32;;;2.63;;
47764;SDS011;33529;49.242;8.670;2022-11-20T09:31:48;4.70;;;2.65;;
47764;SDS011;33529;49.242;8.670;2022-11-20T09:34:14;4.78;;;3.00;;
47764;SDS011;33529;49.242;8.670;2022-11-20T09:36:42;4.10;;;2.35;;
47764;SDS011;33529;49.242;8.670;2022-11-20T09:39:08;4.57;;;2.92;;
47764;SDS011;33529;49.242;8.670;2022-11-20T09:44:48;3.80;;;2.35;;
47764;SDS011;33529;49.242;8.670;2022-11-20T09:47:21;4.57;;;2.75;;
47764;SDS011;33529;49.242;8.670;2022-11-20T09:50:23;4.20;;;1.90;;
47764;SDS011;33529;49.242;8.670;2022-11-20T09:55:46;3.83;;;2.25;;
47764;SDS011;33529;49.242;8.670;2022-11-20T10:01:14;4.15;;;2.17;;
47764;SDS011;33529;49.242;8.670;2022-11-20T10:06:41;3.88;;;2.35;;
47764;SDS011;33529;49.242;8.670;2022-11-20T10:09:30;5.80;;;2.55;;
47764;SDS011;33529;49.242;8.670;2022-11-20T10:14:38;4.38;;;2.15;;
47764;SDS011;33529;49.242;8.670;2022-11-20T10:20:27;3.75;;;1.88;;
47764;SDS011;33529;49.242;8.670;2022-11-20T10:25:38;3.42;;;1.95;;
47764;SDS011;33529;49.242;8.670;2022-11-20T10:31:03;3.15;;;2.10;;
47764;SDS011;33529;49.242;8.670;2022-11-20T10:33:36;4.03;;;2.17;;
47764;SDS011;33529;49.242;8.670;2022-11-20T10:36:28;3.55;;;2.15;;
47764;SDS011;33529;49.242;8.670;2022-11-20T10:39:06;2.65;;;1.60;;
47764;SDS011;33529;49.242;8.670;2022-11-20T10:41:42;2.63;;;1.38;;
47764;SDS011;33529;49.242;8.670;2022-11-20T10:44:16;3.00;;;1.50;;
47764;SDS011;33529;49.242;8.670;2022-11-20T10:47:05;3.40;;;1.60;;
47764;SDS011;33529;49.242;8.670;2022-11-20T10:52:16;3.40;;;1.55;;
47764;SDS011;33529;49.242;8.670;2022-11-20T10:55:07;2.50;;;1.42;;
47764;SDS011;33529;49.242;8.670;2022-11-20T10:57:47;3.97;;;1.90;;
47764;SDS011;33529;49.242;8.670;2022-11-20T11:00:18;3.63;;;2.20;;
47764;SDS011;33529;49.242;8.670;2022-11-20T11:02:47;2.92;;;1.75;;
47764;SDS011;33529;49.242;8.670;2022-11-20T11:05:24;3.10;;;2.22;;
47764;SDS011;33529;49.242;8.670;2022-11-20T11:10:49;3.22;;;1.77;;
47764;SDS011;33529;49.242;8.670;2022-11-20T11:13:23;4.47;;;1.98;;
47764;SDS011;33529;49.242;8.670;2022-11-20T11:15:52;3.20;;;2.00;;
47764;SDS011;33529;49.242;8.670;2022-11-20T11:18:26;3.45;;;2.03;;
47764;SDS011;33529;49.242;8.670;2022-11-20T11:21:01;4.22;;;2.15;;
47764;SDS011;33529;49.242;8.670;2022-11-20T11:23:31;4.13;;;2.20;;
47764;SDS011;33529;49.242;8.670;2022-11-20T11:26:00;3.05;;;2.05;;
47764;SDS011;33529;49.242;8.670;2022-11-20T11:28:30;3.00;;;1.80;;
47764;SDS011;33529;49.242;8.670;2022-11-20T11:30:57;5.70;;;2.72;;
47764;SDS011;33529;49.242;8.670;2022-11-20T11:33:25;3.08;;;1.52;;
47764;SDS011;33529;49.242;8.670;2022-11-20T11:35:53;2.92;;;1.80;;
47764;SDS011;33529;49.242;8.670;2022-11-20T11:38:30;2.75;;;1.90;;
47764;SDS011;33529;49.242;8.670;2022-11-20T11:41:02;3.42;;;2.40;;
47764;SDS011;33529;49.242;8.670;2022-11-20T11:43:34;5.03;;;2.53;;
47764;SDS011;33529;49.242;8.670;2022-11-20T11:46:24;9.75;;;6.30;;
47764;SDS011;33529;49.242;8.670;2022-11-20T11:49:00;4.47;;;2.58;;
47764;SDS011;33529;49.242;8.670;2022-11-20T11:51:32;5.00;;;4.18;;
47764;SDS011;33529;49.242;8.670;2022-11-20T11:54:00;13.60;;;11.25;;
47764;SDS011;33529;49.242;8.670;2022-11-20T11:56:31;11.47;;;8.63;;
47764;SDS011;33529;49.242;8.670;2022-11-20T11:59:00;10.20;;;8.45;;
47764;SDS011;33529;49.242;8.670;2022-11-20T12:01:43;8.32;;;6.28;;
47764;SDS011;33529;49.242;8.670;2022-11-20T12:04:21;16.60;;;12.70;;
47764;SDS011;33529;49.242;8.670;2022-11-20T12:07:03;4.03;;;2.33;;
47764;SDS011;33529;49.242;8.670;2022-11-20T12:09:58;1.88;;;1.27;;
47764;SDS011;33529;49.242;8.670;2022-11-20T12:12:28;3.10;;;1.88;;
47764;SDS011;33529;49.242;8.670;2022-11-20T12:15:03;1.90;;;1.00;;
47764;SDS011;33529;49.242;8.670;2022-11-20T12:17:33;1.98;;;1.10;;
47764;SDS011;33529;49.242;8.670;2022-11-20T12:20:00;2.83;;;1.08;;
47764;SDS011;33529;49.242;8.670;2022-11-20T12:22:45;1.92;;;1.25;;
47764;SDS011;33529;49.242;8.670;2022-11-20T12:25:20;1.85;;;1.08;;
47764;SDS011;33529;49.242;8.670;2022-11-20T12:30:41;5.13;;;3.42;;
47764;SDS011;33529;49.242;8.670;2022-11-20T12:36:17;3.33;;;1.90;;
47764;SDS011;33529;49.242;8.670;2022-11-20T12:39:07;2.40;;;1.00;;
47764;SDS011;33529;49.242;8.670;2022-11-20T12:50:40;1.75;;;1.17;;
47764;SDS011;33529;49.242;8.670;2022-11-20T12:56:42;1.98;;;0.70;;
47764;SDS011;33529;49.242;8.670;2022-11-20T13:05:09;1.33;;;0.98;;
47764;SDS011;33529;49.242;8.670;2022-11-20T13:07:45;3.55;;;1.13;;
47764;SDS011;33529;49.242;8.670;2022-11-20T13:10:14;1.67;;;0.85;;
47764;SDS011;33529;49.242;8.670;2022-11-20T13:13:03;2.33;;;1.30;;
47764;SDS011;33529;49.242;8.670;2022-11-20T13:15:50;0.82;;;0.60;;
47764;SDS011;33529;49.242;8.670;2022-11-20T13:18:24;1.50;;;0.90;;
47764;SDS011;33529;49.242;8.670;2022-11-20T13:20:52;1.45;;;1.02;;
47764;SDS011;33529;49.242;8.670;2022-11-20T13:23:22;1.17;;;0.90;;
47764;SDS011;33529;49.242;8.670;2022-11-20T13:28:29;0.55;;;0.50;;
47764;SDS011;33529;49.242;8.670;2022-11-20T13:30:56;1.42;;;0.68;;
47764;SDS011;33529;49.242;8.670;2022-11-20T13:33:31;1.92;;;0.82;;
47764;SDS011;33529;49.242;8.670;2022-11-20T13:36:23;1.27;;;0.55;;
47764;SDS011;33529;49.242;8.670;2022-11-20T13:38:53;2.28;;;0.85;;
47764;SDS011;33529;49.242;8.670;2022-11-20T13:41:33;1.45;;;0.68;;
47764;SDS011;33529;49.242;8.670;2022-11-20T13:46:39;2.53;;;0.70;;
47764;SDS011;33529;49.242;8.670;2022-11-20T13:49:53;1.75;;;0.65;;
47764;SDS011;33529;49.242;8.670;2022-11-20T13:55:23;2.65;;;0.65;;
47764;SDS011;33529;49.242;8.670;2022-11-20T13:58:03;1.67;;;0.70;;
47764;SDS011;33529;49.242;8.670;2022-11-20T14:00:46;2.17;;;0.60;;
47764;SDS011;33529;49.242;8.670;2022-11-20T14:03:21;1.55;;;0.70;;
47764;SDS011;33529;49.242;8.670;2022-11-20T14:06:12;0.57;;;0.45;;
47764;SDS011;33529;49.242;8.670;2022-11-20T14:08:48;1.65;;;1.00;;
47764;SDS011;33529;49.242;8.670;2022-11-20T14:11:24;0.57;;;0.45;;
47764;SDS011;33529;49.242;8.670;2022-11-20T14:14:02;1.08;;;0.52;;
47764;SDS011;33529;49.242;8.670;2022-11-20T14:16:41;2.03;;;0.60;;
47764;SDS011;33529;49.242;8.670;2022-11-20T14:21:50;1.25;;;0.60;;
47764;SDS011;33529;49.242;8.670;2022-11-20T14:24:20;1.73;;;0.70;;
47764;SDS011;33529;49.242;8.670;2022-11-20T14:26:49;0.93;;;0.50;;
47764;SDS011;33529;49.242;8.670;2022-11-20T14:29:18;0.80;;;0.43;;
47764;SDS011;33529;49.242;8.670;2022-11-20T14:31:47;0.80;;;0.50;;
47764;SDS011;33529;49.242;8.670;2022-11-20T14:34:25;1.05;;;0.50;;
47764;SDS011;33529;49.242;8.670;2022-11-20T14:37:00;1.67;;;0.70;;
47764;SDS011;33529;49.242;8.670;2022-11-20T14:42:03;0.85;;;0.63;;
47764;SDS011;33529;49.242;8.670;2022-11-20T14:44:42;1.40;;;0.68;;
47764;SDS011;33529;49.242;8.670;2022-11-20T14:47:10;0.70;;;0.40;;
47764;SDS011;33529;49.242;8.670;2022-11-20T14:49:39;0.82;;;0.50;;
47764;SDS011;33529;49.242;8.670;2022-11-20T14:52:13;0.73;;;0.32;;
47764;SDS011;33529;49.242;8.670;2022-11-20T14:54:45;0.57;;;0.55;;
47764;SDS011;33529;49.242;8.670;2022-11-20T14:57:21;1.13;;;0.80;;
47764;SDS011;33529;49.242;8.670;2022-11-20T15:00:03;1.88;;;0.55;;
47764;SDS011;33529;49.242;8.670;2022-11-20T15:02:32;1.38;;;0.47;;
47764;SDS011;33529;49.242;8.670;2022-11-20T15:05:00;1.95;;;0.70;;
47764;SDS011;33529;49.242;8.670;2022-11-20T15:07:33;0.90;;;0.47;;
47764;SDS011;33529;49.242;8.670;2022-11-20T15:12:38;1.08;;;0.47;;
47764;SDS011;33529;49.242;8.670;2022-11-20T15:15:12;2.13;;;0.70;;
47764;SDS011;33529;49.242;8.670;2022-11-20T15:20:12;1.27;;;0.68;;
47764;SDS011;33529;49.242;8.670;2022-11-20T15:22:41;1.27;;;0.70;;
47764;SDS011;33529;49.242;8.670;2022-11-20T15:25:17;1.85;;;0.82;;
47764;SDS011;33529;49.242;8.670;2022-11-20T15:27:44;1.40;;;0.68;;
47764;SDS011;33529;49.242;8.670;2022-11-20T15:30:15;4.68;;;1.10;;
47764;SDS011;33529;49.242;8.670;2022-11-20T15:32:46;3.00;;;1.58;;
47764;SDS011;33529;49.242;8.670;2022-11-20T15:35:14;4.57;;;0.90;;
47764;SDS011;33529;49.242;8.670;2022-11-20T15:37:41;0.90;;;0.60;;
47764;SDS011;33529;49.242;8.670;2022-11-20T15:40:08;1.23;;;0.73;;
47764;SDS011;33529;49.242;8.670;2022-11-20T15:42:35;0.88;;;0.75;;
47764;SDS011;33529;49.242;8.670;2022-11-20T15:45:03;1.08;;;0.50;;
47764;SDS011;33529;49.242;8.670;2022-11-20T15:47:31;2.20;;;1.30;;
47764;SDS011;33529;49.242;8.670;2022-11-20T15:50:00;1.58;;;0.93;;
47764;SDS011;33529;49.242;8.670;2022-11-20T15:52:26;2.22;;;1.15;;
47764;SDS011;33529;49.242;8.670;2022-11-20T15:55:01;1.65;;;1.00;;
47764;SDS011;33529;49.242;8.670;2022-11-20T15:57:35;3.35;;;1.52;;
47764;SDS011;33529;49.242;8.670;2022-11-20T16:00:02;2.92;;;0.93;;
47764;SDS011;33529;49.242;8.670;2022-11-20T16:02:35;2.35;;;1.10;;
47764;SDS011;33529;49.242;8.670;2022-11-20T16:05:02;1.58;;;0.90;;
47764;SDS011;33529;49.242;8.670;2022-11-20T16:07:30;2.30;;;0.90;;
47764;SDS011;33529;49.242;8.670;2022-11-20T16:09:56;1.15;;;0.70;;
47764;SDS011;33529;49.242;8.670;2022-11-20T16:12:23;2.42;;;0.80;;
47764;SDS011;33529;49.242;8.670;2022-11-20T16:15:09;2.05;;;0.95;;
47764;SDS011;33529;49.242;8.670;2022-11-20T16:17:54;1.85;;;1.08;;
47764;SDS011;33529;49.242;8.670;2022-11-20T16:20:21;1.00;;;0.47;;
47764;SDS011;33529;49.242;8.670;2022-11-20T16:22:48;0.73;;;0.60;;
47764;SDS011;33529;49.242;8.670;2022-11-20T16:25:15;2.33;;;0.88;;
47764;SDS011;33529;49.242;8.670;2022-11-20T16:27:42;0.57;;;0.50;;
47764;SDS011;33529;49.242;8.670;2022-11-20T16:30:09;0.95;;;0.60;;
47764;SDS011;33529;49.242;8.670;2022-11-20T16:32:36;4.28;;;1.63;;
47764;SDS011;33529;49.242;8.670;2022-11-20T16:35:04;1.77;;;1.02;;